• Join FlightAware (Why Join?)
  • Login
  • US Flag 
04:49PM EDT


 

Airport Tracker/Info


-or-


 

Live Flight TrackerFlight Track Log ✈ ASQ5958 ✈ 25-Aug-2013 ✈ KMCI - KORD

Flight Track Log - Related Links

Times and Time Zones

All times are in EDT time to prevent confusion due to time zone crossing. See the ASQ5958 flight status page for this flight to view local times or setup timezone preferences in your user account.

Time Position Orientation Groundspeed Altitude Reporting Facility
EDT Latitude Longitude Course Direction KTS MPH feet Rate Location/Type
10:37AM 39.3000 -94.7333 45° Northeast 155 178 1,800  Level Kansas City TRACON
10:37AM 39.2667 -94.7167 159° South 167 192 2,900 1,920 Climbing Kansas City TRACON
10:38AM 39.2167 -94.7167 180° South 208 239 4,700 1,800 Climbing Kansas City TRACON
10:39AM 39.1961 -94.6883 133° Southeast 221 254 5,500 1,560 Climbing Kansas City Center
10:40AM 39.2031 -94.6028 84° East 255 293 7,100 2,040 Climbing Kansas City Center
10:41AM 39.5444 -94.4064 41° Northeast  Level FlightAware Approximate
10:41AM 39.2692 -94.5325 39° Northeast 277 319 9,700  Level Kansas City Center
10:42AM 39.6003 -94.3355 45° Northeast  Level FlightAware Approximate
10:42AM 39.3358 -94.4769 33° Northeast 297 342 10,600  Level Kansas City Center
10:43AM 39.4111 -94.4147 33° Northeast 329 379 11,500 1,080 Climbing Kansas City Center
10:44AM 39.5044 -94.3403 32° Northeast 351 404 12,900 1,200 Climbing Kansas City Center
10:45AM 39.5861 -94.2731 32° Northeast 360 414 14,000 1,200 Climbing Kansas City Center
10:46AM 39.6819 -94.1936 33° Northeast 366 421 15,400 1,200 Climbing Kansas City Center
10:47AM 39.7642 -94.1242 33° Northeast 368 423 16,500 1,080 Climbing Kansas City Center
10:48AM 39.8606 -94.0372 35° Northeast 376 433 17,700 840 Climbing Kansas City Center
10:49AM 39.9478 -93.9633 33° Northeast 377 434 18,300 720 Climbing Kansas City Center
10:50AM 40.0008 -93.8481 59° Northeast 383 441 19,300 900 Climbing Kansas City Center
10:51AM 40.0331 -93.7131 73° East 390 449 20,200 780 Climbing Kansas City Center
10:52AM 40.0650 -93.5764 73° East 394 453 21,000 780 Climbing Kansas City Center
10:53AM 40.0981 -93.4383 73° East 401 461 21,800 780 Climbing Kansas City Center
10:54AM 40.1372 -93.2700 73° East 406 467 22,700 780 Climbing Kansas City Center
10:55AM 40.1703 -93.1292 73° East 409 471 23,500 780 Climbing Kansas City Center
10:56AM 40.2019 -92.9869 74° East 411 473 24,300 780 Climbing Kansas City Center
10:57AM 40.2392 -92.8275 73° East 410 472 25,200 780 Climbing Kansas City Center
10:58AM 40.2708 -92.6908 73° East 410 472 26,000 840 Climbing Kansas City Center
10:59AM 40.3053 -92.5297 74° East 411 473 27,000 840 Climbing Kansas City Center
11:00AM 40.3347 -92.4056 73° East 418 481 27,800 840 Climbing Kansas City Center
11:01AM 40.3672 -92.2600 74° East 408 470 28,800 540 Climbing Kansas City Center
11:02AM 40.4053 -92.0850 74° East 413 475 29,000 60 Climbing Kansas City Center
11:03AM 40.4389 -91.9314 74° East 428 493 29,000  Level Kansas City Center
11:04AM 40.4597 -91.8369 74° East 443 510 29,000  Level Chicago Center
11:05AM 40.4950 -91.6767 74° East 455 524 29,000  Level Chicago Center
11:06AM 40.5078 -91.6122 75° East 459 528 29,000  Level Kansas City Center
11:07AM 40.5422 -91.4514 74° East 461 531 29,000  Level Kansas City Center
11:08AM 40.5981 -91.2628 69° East 465 535 29,000  Level Kansas City Center
11:09AM 40.6564 -91.1017 64° Northeast 469 540 29,000  Level Kansas City Center
11:09AM 40.6792 -91.0389 64° Northeast 472 543 29,000  Level Chicago Center
11:10AM 40.7322 -90.8808 66° East 472 543 29,000  Level Chicago Center
11:11AM 40.7961 -90.6892 66° East 474 545 29,000  Level Chicago Center
11:12AM 40.8497 -90.5314 66° East 471 542 29,000  Level Chicago Center
11:13AM 40.9036 -90.3703 66° East 474 545 29,000 -120 Level Chicago Center
11:14AM 40.9600 -90.2058 66° East 474 545 28,800 -780 Descending Chicago Center
11:15AM 41.0117 -90.0458 67° East 474 545 27,500 -1,320 Descending Chicago Center
11:16AM 41.0653 -89.8831 66° East 481 554 26,100 -1,380 Descending Chicago Center
11:17AM 41.1161 -89.7250 67° East 465 535 24,700 -1,140 Descending Chicago Center
11:18AM 41.1672 -89.5736 66° East 447 514 23,800 -1,080 Descending Chicago Center
11:19AM 41.2250 -89.4311 62° Northeast 438 504 22,600 -1,740 Descending Chicago Center
11:20AM 41.2806 -89.2917 62° Northeast 426 490 20,300 -2,520 Descending Chicago Center
11:22AM 41.3431 -89.1350 62° Northeast 416 479 17,400 -2,520 Descending Chicago Center
11:23AM 41.3944 -89.0039 62° Northeast 403 464 15,200 -2,040 Descending Chicago Center
11:24AM 41.4439 -88.8814 62° Northeast 380 437 13,200 -1,860 Descending Chicago Center
11:25AM 41.4917 -88.7592 62° Northeast 373 429 11,400 -1,080 Descending Chicago Center
11:26AM 41.5481 -88.6164 62° Northeast 365 420 11,000 -360 Descending Chicago Center
11:27AM 41.5969 -88.4953 62° Northeast 368 423 10,700 -540 Descending Chicago Center
11:28AM 41.6556 -88.3850 55° Northeast 363 418 10,000 -360 Descending Chicago Center
11:29AM 41.7178 -88.2794 52° Northeast 359 413 10,000  Level Chicago Center
11:30AM 41.7811 -88.1717 52° Northeast 365 420 10,000 -480 Level Chicago Center
11:31AM 41.8331 -88.0786 53° Northeast 310 357 9,100 -1,320 Descending Chicago Center
11:32AM 41.8575 -87.9764 72° East 293 337 7,300 -1,020 Descending Chicago Center
11:33AM 41.8711 -87.8828 79° East 267 307 7,000 -420 Descending Chicago Center
11:33AM 41.8833 -87.8167 76° East 211 243 6,700 -1,020 Descending Chicago TRACON
11:34AM 41.8833 -87.7500 90° East 206 237 5,400 -1,500 Descending Chicago TRACON
11:36AM 41.9333 -87.7333 14° North 191 220 3,600 -1,440 Descending Chicago TRACON
11:37AM 41.9667 -87.7833 312° West 132 152 2,300 -1,080 Descending Chicago TRACON
11:38AM 41.9667 -87.8333 270° West 134 154 1,500 -900 Descending Chicago TRACON